sensor_id;sensor_type;location;lat;lon;timestamp;P1;durP1;ratioP1;P2;durP2;ratioP2
38379;SDS011;38377;47.418;18.882;2024-01-30T00:00:10;29.10;;;17.17;;
38379;SDS011;38377;47.418;18.882;2024-01-30T00:02:35;29.43;;;16.30;;
38379;SDS011;38377;47.418;18.882;2024-01-30T00:05:01;29.23;;;16.27;;
38379;SDS011;38377;47.418;18.882;2024-01-30T00:07:28;32.43;;;16.70;;
38379;SDS011;38377;47.418;18.882;2024-01-30T00:09:54;33.07;;;17.30;;
38379;SDS011;38377;47.418;18.882;2024-01-30T00:12:19;28.37;;;16.17;;
38379;SDS011;38377;47.418;18.882;2024-01-30T00:14:45;27.77;;;15.63;;
38379;SDS011;38377;47.418;18.882;2024-01-30T00:17:11;28.03;;;14.90;;
38379;SDS011;38377;47.418;18.882;2024-01-30T00:19:36;25.60;;;15.10;;
38379;SDS011;38377;47.418;18.882;2024-01-30T00:22:02;29.80;;;16.40;;
38379;SDS011;38377;47.418;18.882;2024-01-30T00:24:27;28.13;;;15.83;;
38379;SDS011;38377;47.418;18.882;2024-01-30T00:26:53;26.03;;;15.00;;
38379;SDS011;38377;47.418;18.882;2024-01-30T00:29:19;29.90;;;15.10;;
38379;SDS011;38377;47.418;18.882;2024-01-30T00:31:45;27.67;;;15.20;;
38379;SDS011;38377;47.418;18.882;2024-01-30T00:34:11;26.53;;;14.90;;
38379;SDS011;38377;47.418;18.882;2024-01-30T00:36:37;28.00;;;14.87;;
38379;SDS011;38377;47.418;18.882;2024-01-30T00:39:02;31.60;;;14.73;;
38379;SDS011;38377;47.418;18.882;2024-01-30T00:41:31;28.67;;;14.70;;
38379;SDS011;38377;47.418;18.882;2024-01-30T00:43:57;31.43;;;15.53;;
38379;SDS011;38377;47.418;18.882;2024-01-30T00:46:22;27.80;;;14.27;;
38379;SDS011;38377;47.418;18.882;2024-01-30T00:48:48;24.23;;;13.67;;
38379;SDS011;38377;47.418;18.882;2024-01-30T00:51:14;27.03;;;13.70;;
38379;SDS011;38377;47.418;18.882;2024-01-30T00:53:40;26.63;;;13.70;;
38379;SDS011;38377;47.418;18.882;2024-01-30T00:56:06;23.73;;;13.93;;
38379;SDS011;38377;47.418;18.882;2024-01-30T00:58:32;27.53;;;13.60;;
38379;SDS011;38377;47.418;18.882;2024-01-30T01:00:58;27.03;;;13.83;;
38379;SDS011;38377;47.418;18.882;2024-01-30T01:03:24;27.33;;;14.27;;
38379;SDS011;38377;47.418;18.882;2024-01-30T01:05:50;24.63;;;13.70;;
38379;SDS011;38377;47.418;18.882;2024-01-30T01:08:15;25.33;;;13.47;;
38379;SDS011;38377;47.418;18.882;2024-01-30T01:10:41;28.20;;;13.57;;
38379;SDS011;38377;47.418;18.882;2024-01-30T01:13:07;28.10;;;14.30;;
38379;SDS011;38377;47.418;18.882;2024-01-30T01:15:32;25.53;;;13.77;;
38379;SDS011;38377;47.418;18.882;2024-01-30T01:17:58;29.73;;;13.57;;
38379;SDS011;38377;47.418;18.882;2024-01-30T01:20:23;25.33;;;13.80;;
38379;SDS011;38377;47.418;18.882;2024-01-30T01:22:49;25.93;;;13.73;;
38379;SDS011;38377;47.418;18.882;2024-01-30T01:25:14;27.10;;;13.60;;
38379;SDS011;38377;47.418;18.882;2024-01-30T01:27:40;24.30;;;12.83;;
38379;SDS011;38377;47.418;18.882;2024-01-30T01:30:10;23.33;;;12.80;;
38379;SDS011;38377;47.418;18.882;2024-01-30T01:32:36;26.13;;;13.47;;
38379;SDS011;38377;47.418;18.882;2024-01-30T01:35:03;27.47;;;12.67;;
38379;SDS011;38377;47.418;18.882;2024-01-30T01:37:30;24.27;;;12.93;;
38379;SDS011;38377;47.418;18.882;2024-01-30T01:39:56;22.23;;;13.00;;
38379;SDS011;38377;47.418;18.882;2024-01-30T01:42:21;25.23;;;13.00;;
38379;SDS011;38377;47.418;18.882;2024-01-30T01:44:47;25.37;;;13.97;;
38379;SDS011;38377;47.418;18.882;2024-01-30T01:47:13;23.10;;;13.57;;
38379;SDS011;38377;47.418;18.882;2024-01-30T01:49:40;25.20;;;12.40;;
38379;SDS011;38377;47.418;18.882;2024-01-30T01:52:06;23.87;;;13.37;;
38379;SDS011;38377;47.418;18.882;2024-01-30T01:54:32;25.03;;;12.70;;
38379;SDS011;38377;47.418;18.882;2024-01-30T01:56:58;26.43;;;13.57;;
38379;SDS011;38377;47.418;18.882;2024-01-30T01:59:24;26.47;;;14.03;;
38379;SDS011;38377;47.418;18.882;2024-01-30T02:01:50;26.67;;;14.07;;
38379;SDS011;38377;47.418;18.882;2024-01-30T02:04:18;24.30;;;13.63;;
38379;SDS011;38377;47.418;18.882;2024-01-30T02:06:43;23.10;;;12.73;;
38379;SDS011;38377;47.418;18.882;2024-01-30T02:09:09;24.57;;;12.87;;
38379;SDS011;38377;47.418;18.882;2024-01-30T02:11:35;25.33;;;13.30;;
38379;SDS011;38377;47.418;18.882;2024-01-30T02:14:03;22.50;;;13.30;;
38379;SDS011;38377;47.418;18.882;2024-01-30T02:16:30;22.07;;;11.93;;
38379;SDS011;38377;47.418;18.882;2024-01-30T02:18:56;23.23;;;12.60;;
38379;SDS011;38377;47.418;18.882;2024-01-30T02:21:21;23.73;;;13.53;;
38379;SDS011;38377;47.418;18.882;2024-01-30T02:23:47;25.50;;;12.73;;
38379;SDS011;38377;47.418;18.882;2024-01-30T02:26:14;25.10;;;13.53;;
38379;SDS011;38377;47.418;18.882;2024-01-30T02:28:39;24.87;;;13.10;;
38379;SDS011;38377;47.418;18.882;2024-01-30T02:31:05;23.43;;;12.37;;
38379;SDS011;38377;47.418;18.882;2024-01-30T02:33:31;26.60;;;13.40;;
38379;SDS011;38377;47.418;18.882;2024-01-30T02:35:57;25.30;;;13.57;;
38379;SDS011;38377;47.418;18.882;2024-01-30T02:38:22;26.47;;;12.73;;
38379;SDS011;38377;47.418;18.882;2024-01-30T02:40:48;26.63;;;13.90;;
38379;SDS011;38377;47.418;18.882;2024-01-30T02:43:15;25.57;;;12.77;;
38379;SDS011;38377;47.418;18.882;2024-01-30T02:45:41;24.37;;;13.40;;
38379;SDS011;38377;47.418;18.882;2024-01-30T02:48:06;22.60;;;12.87;;
38379;SDS011;38377;47.418;18.882;2024-01-30T02:50:32;24.07;;;13.37;;
38379;SDS011;38377;47.418;18.882;2024-01-30T02:52:58;25.80;;;13.00;;
38379;SDS011;38377;47.418;18.882;2024-01-30T02:55:23;25.57;;;13.33;;
38379;SDS011;38377;47.418;18.882;2024-01-30T02:57:49;22.70;;;13.17;;
38379;SDS011;38377;47.418;18.882;2024-01-30T03:00:14;25.43;;;13.83;;
38379;SDS011;38377;47.418;18.882;2024-01-30T03:02:40;27.33;;;13.33;;
38379;SDS011;38377;47.418;18.882;2024-01-30T03:05:06;24.73;;;14.40;;
38379;SDS011;38377;47.418;18.882;2024-01-30T03:07:33;24.20;;;13.23;;
38379;SDS011;38377;47.418;18.882;2024-01-30T03:09:58;24.00;;;12.80;;
38379;SDS011;38377;47.418;18.882;2024-01-30T03:12:24;23.10;;;13.13;;
38379;SDS011;38377;47.418;18.882;2024-01-30T03:14:49;25.17;;;13.20;;
38379;SDS011;38377;47.418;18.882;2024-01-30T03:17:15;23.47;;;13.40;;
38379;SDS011;38377;47.418;18.882;2024-01-30T03:19:41;27.87;;;13.33;;
38379;SDS011;38377;47.418;18.882;2024-01-30T03:22:06;26.37;;;13.50;;
38379;SDS011;38377;47.418;18.882;2024-01-30T03:24:32;27.53;;;14.13;;
38379;SDS011;38377;47.418;18.882;2024-01-30T03:26:58;21.17;;;12.40;;
38379;SDS011;38377;47.418;18.882;2024-01-30T03:29:23;23.50;;;12.57;;
38379;SDS011;38377;47.418;18.882;2024-01-30T03:31:49;25.57;;;13.07;;
38379;SDS011;38377;47.418;18.882;2024-01-30T03:34:14;26.90;;;13.30;;
38379;SDS011;38377;47.418;18.882;2024-01-30T03:36:40;24.37;;;13.50;;
38379;SDS011;38377;47.418;18.882;2024-01-30T03:39:05;26.10;;;13.13;;
38379;SDS011;38377;47.418;18.882;2024-01-30T03:41:31;24.67;;;13.53;;
38379;SDS011;38377;47.418;18.882;2024-01-30T03:43:57;25.30;;;13.90;;
38379;SDS011;38377;47.418;18.882;2024-01-30T03:46:23;26.70;;;13.70;;
38379;SDS011;38377;47.418;18.882;2024-01-30T03:48:50;24.87;;;13.97;;
38379;SDS011;38377;47.418;18.882;2024-01-30T03:51:19;23.77;;;14.88;;
38379;SDS011;38377;47.418;18.882;2024-01-30T03:53:44;24.10;;;13.70;;
38379;SDS011;38377;47.418;18.882;2024-01-30T03:56:13;25.07;;;13.47;;
38379;SDS011;38377;47.418;18.882;2024-01-30T03:58:39;26.90;;;14.43;;
38379;SDS011;38377;47.418;18.882;2024-01-30T04:01:05;27.57;;;14.47;;
38379;SDS011;38377;47.418;18.882;2024-01-30T04:03:30;25.03;;;13.80;;
38379;SDS011;38377;47.418;18.882;2024-01-30T04:05:56;27.17;;;14.70;;
38379;SDS011;38377;47.418;18.882;2024-01-30T04:08:21;26.97;;;15.10;;
38379;SDS011;38377;47.418;18.882;2024-01-30T04:10:47;27.17;;;12.93;;
38379;SDS011;38377;47.418;18.882;2024-01-30T04:13:13;22.10;;;13.27;;
38379;SDS011;38377;47.418;18.882;2024-01-30T04:15:39;27.80;;;14.07;;
38379;SDS011;38377;47.418;18.882;2024-01-30T04:18:04;25.43;;;14.30;;
38379;SDS011;38377;47.418;18.882;2024-01-30T04:20:30;25.53;;;14.13;;
38379;SDS011;38377;47.418;18.882;2024-01-30T04:22:56;27.23;;;14.53;;
38379;SDS011;38377;47.418;18.882;2024-01-30T04:25:22;25.40;;;14.53;;
38379;SDS011;38377;47.418;18.882;2024-01-30T04:27:48;26.63;;;13.77;;
38379;SDS011;38377;47.418;18.882;2024-01-30T04:30:13;26.47;;;13.37;;
38379;SDS011;38377;47.418;18.882;2024-01-30T04:32:39;33.03;;;14.33;;
38379;SDS011;38377;47.418;18.882;2024-01-30T04:35:05;24.30;;;14.07;;
38379;SDS011;38377;47.418;18.882;2024-01-30T04:37:31;24.80;;;13.67;;
38379;SDS011;38377;47.418;18.882;2024-01-30T04:39:57;26.83;;;14.60;;
38379;SDS011;38377;47.418;18.882;2024-01-30T04:42:22;27.70;;;14.13;;
38379;SDS011;38377;47.418;18.882;2024-01-30T04:44:48;25.93;;;14.23;;
38379;SDS011;38377;47.418;18.882;2024-01-30T04:47:14;29.83;;;14.87;;
38379;SDS011;38377;47.418;18.882;2024-01-30T04:49:39;23.73;;;14.47;;
38379;SDS011;38377;47.418;18.882;2024-01-30T04:52:06;30.80;;;15.67;;
38379;SDS011;38377;47.418;18.882;2024-01-30T04:54:32;30.63;;;16.10;;
38379;SDS011;38377;47.418;18.882;2024-01-30T04:56:58;28.63;;;15.57;;
38379;SDS011;38377;47.418;18.882;2024-01-30T04:59:24;34.57;;;16.13;;
38379;SDS011;38377;47.418;18.882;2024-01-30T05:01:49;37.73;;;18.23;;
38379;SDS011;38377;47.418;18.882;2024-01-30T05:04:15;33.33;;;18.00;;
38379;SDS011;38377;47.418;18.882;2024-01-30T05:06:40;36.07;;;17.10;;
38379;SDS011;38377;47.418;18.882;2024-01-30T05:09:06;33.97;;;18.07;;
38379;SDS011;38377;47.418;18.882;2024-01-30T05:11:36;33.07;;;16.87;;
38379;SDS011;38377;47.418;18.882;2024-01-30T05:14:03;31.75;;;15.98;;
38379;SDS011;38377;47.418;18.882;2024-01-30T05:16:29;30.93;;;17.23;;
38379;SDS011;38377;47.418;18.882;2024-01-30T05:18:54;33.93;;;17.53;;
38379;SDS011;38377;47.418;18.882;2024-01-30T05:21:20;30.83;;;17.27;;
38379;SDS011;38377;47.418;18.882;2024-01-30T05:23:45;33.53;;;18.23;;
38379;SDS011;38377;47.418;18.882;2024-01-30T05:26:11;33.20;;;16.83;;
38379;SDS011;38377;47.418;18.882;2024-01-30T05:28:37;33.33;;;17.50;;
38379;SDS011;38377;47.418;18.882;2024-01-30T05:31:02;32.30;;;17.73;;
38379;SDS011;38377;47.418;18.882;2024-01-30T05:33:28;32.87;;;17.50;;
38379;SDS011;38377;47.418;18.882;2024-01-30T05:35:54;31.50;;;16.67;;
38379;SDS011;38377;47.418;18.882;2024-01-30T05:38:19;28.33;;;16.70;;
38379;SDS011;38377;47.418;18.882;2024-01-30T05:40:45;35.33;;;17.37;;
38379;SDS011;38377;47.418;18.882;2024-01-30T05:43:11;31.93;;;15.87;;
38379;SDS011;38377;47.418;18.882;2024-01-30T05:45:37;29.40;;;16.70;;
38379;SDS011;38377;47.418;18.882;2024-01-30T05:48:03;38.53;;;17.07;;
38379;SDS011;38377;47.418;18.882;2024-01-30T05:50:29;28.67;;;16.13;;
38379;SDS011;38377;47.418;18.882;2024-01-30T05:52:55;27.97;;;16.17;;
38379;SDS011;38377;47.418;18.882;2024-01-30T05:55:20;28.60;;;16.50;;
38379;SDS011;38377;47.418;18.882;2024-01-30T05:57:46;32.43;;;16.30;;
38379;SDS011;38377;47.418;18.882;2024-01-30T06:00:12;31.90;;;16.13;;
38379;SDS011;38377;47.418;18.882;2024-01-30T06:02:38;32.73;;;17.17;;
38379;SDS011;38377;47.418;18.882;2024-01-30T06:05:04;30.43;;;16.00;;
38379;SDS011;38377;47.418;18.882;2024-01-30T06:07:30;30.57;;;16.27;;
38379;SDS011;38377;47.418;18.882;2024-01-30T06:09:56;29.50;;;16.53;;
38379;SDS011;38377;47.418;18.882;2024-01-30T06:12:22;31.73;;;15.80;;
38379;SDS011;38377;47.418;18.882;2024-01-30T06:14:47;31.30;;;16.73;;
38379;SDS011;38377;47.418;18.882;2024-01-30T06:17:13;30.73;;;15.50;;
38379;SDS011;38377;47.418;18.882;2024-01-30T06:19:38;30.60;;;15.23;;
38379;SDS011;38377;47.418;18.882;2024-01-30T06:22:04;28.23;;;15.43;;
38379;SDS011;38377;47.418;18.882;2024-01-30T06:24:30;30.43;;;16.03;;
38379;SDS011;38377;47.418;18.882;2024-01-30T06:26:56;27.80;;;15.30;;
38379;SDS011;38377;47.418;18.882;2024-01-30T06:29:21;29.83;;;15.97;;
38379;SDS011;38377;47.418;18.882;2024-01-30T06:31:47;27.43;;;15.93;;
38379;SDS011;38377;47.418;18.882;2024-01-30T06:34:12;31.40;;;16.87;;
38379;SDS011;38377;47.418;18.882;2024-01-30T06:36:38;27.53;;;15.60;;
38379;SDS011;38377;47.418;18.882;2024-01-30T06:39:04;27.53;;;16.23;;
38379;SDS011;38377;47.418;18.882;2024-01-30T06:41:30;30.67;;;15.53;;
38379;SDS011;38377;47.418;18.882;2024-01-30T06:43:56;29.57;;;16.90;;
38379;SDS011;38377;47.418;18.882;2024-01-30T06:46:22;28.83;;;16.27;;
38379;SDS011;38377;47.418;18.882;2024-01-30T06:48:47;28.20;;;15.97;;
38379;SDS011;38377;47.418;18.882;2024-01-30T06:51:13;30.27;;;16.13;;
38379;SDS011;38377;47.418;18.882;2024-01-30T06:53:38;30.53;;;15.83;;
38379;SDS011;38377;47.418;18.882;2024-01-30T06:56:04;32.03;;;15.63;;
38379;SDS011;38377;47.418;18.882;2024-01-30T06:58:30;29.47;;;16.43;;
38379;SDS011;38377;47.418;18.882;2024-01-30T07:00:56;33.67;;;16.60;;
38379;SDS011;38377;47.418;18.882;2024-01-30T07:03:22;32.37;;;17.00;;
38379;SDS011;38377;47.418;18.882;2024-01-30T07:05:47;31.07;;;16.20;;
38379;SDS011;38377;47.418;18.882;2024-01-30T07:08:13;32.50;;;17.57;;
38379;SDS011;38377;47.418;18.882;2024-01-30T07:10:42;30.27;;;15.87;;
38379;SDS011;38377;47.418;18.882;2024-01-30T07:13:08;31.70;;;17.77;;
38379;SDS011;38377;47.418;18.882;2024-01-30T07:15:35;29.83;;;17.27;;
38379;SDS011;38377;47.418;18.882;2024-01-30T07:18:01;28.40;;;16.80;;
38379;SDS011;38377;47.418;18.882;2024-01-30T07:20:27;28.10;;;16.97;;
38379;SDS011;38377;47.418;18.882;2024-01-30T07:22:53;30.40;;;17.13;;
38379;SDS011;38377;47.418;18.882;2024-01-30T07:25:18;32.90;;;17.53;;
38379;SDS011;38377;47.418;18.882;2024-01-30T07:27:44;30.37;;;17.33;;
38379;SDS011;38377;47.418;18.882;2024-01-30T07:30:10;37.67;;;19.07;;
38379;SDS011;38377;47.418;18.882;2024-01-30T07:32:35;32.03;;;18.83;;
38379;SDS011;38377;47.418;18.882;2024-01-30T07:35:01;34.30;;;19.00;;
38379;SDS011;38377;47.418;18.882;2024-01-30T07:37:26;36.60;;;19.57;;
38379;SDS011;38377;47.418;18.882;2024-01-30T07:39:53;31.37;;;18.53;;
38379;SDS011;38377;47.418;18.882;2024-01-30T07:42:19;35.87;;;19.63;;
38379;SDS011;38377;47.418;18.882;2024-01-30T07:44:44;35.17;;;18.87;;
38379;SDS011;38377;47.418;18.882;2024-01-30T07:47:10;34.47;;;17.63;;
38379;SDS011;38377;47.418;18.882;2024-01-30T07:49:36;30.70;;;18.37;;
38379;SDS011;38377;47.418;18.882;2024-01-30T07:52:01;33.70;;;17.60;;
38379;SDS011;38377;47.418;18.882;2024-01-30T07:54:27;32.70;;;18.27;;
38379;SDS011;38377;47.418;18.882;2024-01-30T07:56:58;29.38;;;16.65;;
38379;SDS011;38377;47.418;18.882;2024-01-30T07:59:24;28.70;;;15.63;;
38379;SDS011;38377;47.418;18.882;2024-01-30T08:01:50;32.07;;;16.67;;
38379;SDS011;38377;47.418;18.882;2024-01-30T08:04:16;28.07;;;15.23;;
38379;SDS011;38377;47.418;18.882;2024-01-30T08:06:42;25.80;;;14.57;;
38379;SDS011;38377;47.418;18.882;2024-01-30T08:09:08;26.53;;;15.20;;
38379;SDS011;38377;47.418;18.882;2024-01-30T08:11:33;30.90;;;16.50;;
38379;SDS011;38377;47.418;18.882;2024-01-30T08:13:59;33.30;;;15.13;;
38379;SDS011;38377;47.418;18.882;2024-01-30T08:16:24;27.17;;;15.03;;
38379;SDS011;38377;47.418;18.882;2024-01-30T08:18:50;27.43;;;15.67;;
38379;SDS011;38377;47.418;18.882;2024-01-30T08:21:16;30.23;;;15.73;;
38379;SDS011;38377;47.418;18.882;2024-01-30T08:23:41;28.07;;;15.30;;
38379;SDS011;38377;47.418;18.882;2024-01-30T08:26:07;32.83;;;18.03;;
38379;SDS011;38377;47.418;18.882;2024-01-30T08:28:33;28.40;;;15.17;;
38379;SDS011;38377;47.418;18.882;2024-01-30T08:30:59;28.47;;;14.43;;
38379;SDS011;38377;47.418;18.882;2024-01-30T08:33:24;29.93;;;15.90;;
38379;SDS011;38377;47.418;18.882;2024-01-30T08:35:50;31.97;;;15.57;;
38379;SDS011;38377;47.418;18.882;2024-01-30T08:38:15;32.17;;;15.37;;
38379;SDS011;38377;47.418;18.882;2024-01-30T08:40:41;34.57;;;17.13;;
38379;SDS011;38377;47.418;18.882;2024-01-30T08:43:06;31.90;;;17.33;;
38379;SDS011;38377;47.418;18.882;2024-01-30T08:45:34;32.30;;;17.63;;
38379;SDS011;38377;47.418;18.882;2024-01-30T08:47:59;43.43;;;17.97;;
38379;SDS011;38377;47.418;18.882;2024-01-30T08:50:25;36.27;;;18.10;;
38379;SDS011;38377;47.418;18.882;2024-01-30T08:52:50;31.93;;;17.20;;
38379;SDS011;38377;47.418;18.882;2024-01-30T08:55:16;32.07;;;17.53;;
38379;SDS011;38377;47.418;18.882;2024-01-30T08:57:42;30.73;;;16.97;;
38379;SDS011;38377;47.418;18.882;2024-01-30T09:00:07;36.23;;;17.80;;
38379;SDS011;38377;47.418;18.882;2024-01-30T09:02:35;31.67;;;17.23;;
38379;SDS011;38377;47.418;18.882;2024-01-30T09:05:00;28.80;;;16.73;;
38379;SDS011;38377;47.418;18.882;2024-01-30T09:07:26;30.23;;;15.97;;
38379;SDS011;38377;47.418;18.882;2024-01-30T09:09:52;28.50;;;15.57;;
38379;SDS011;38377;47.418;18.882;2024-01-30T09:12:18;27.60;;;16.17;;
38379;SDS011;38377;47.418;18.882;2024-01-30T09:14:43;26.93;;;15.40;;
38379;SDS011;38377;47.418;18.882;2024-01-30T09:17:09;26.97;;;14.70;;
38379;SDS011;38377;47.418;18.882;2024-01-30T09:19:34;23.53;;;13.00;;
38379;SDS011;38377;47.418;18.882;2024-01-30T09:22:00;27.03;;;14.27;;
38379;SDS011;38377;47.418;18.882;2024-01-30T09:24:26;22.43;;;13.77;;
38379;SDS011;38377;47.418;18.882;2024-01-30T09:26:52;25.17;;;14.53;;
38379;SDS011;38377;47.418;18.882;2024-01-30T09:29:18;26.30;;;14.33;;
38379;SDS011;38377;47.418;18.882;2024-01-30T09:31:44;26.43;;;14.03;;
38379;SDS011;38377;47.418;18.882;2024-01-30T09:34:10;23.70;;;13.50;;
38379;SDS011;38377;47.418;18.882;2024-01-30T09:36:36;25.30;;;12.93;;
38379;SDS011;38377;47.418;18.882;2024-01-30T09:39:02;23.77;;;13.50;;
38379;SDS011;38377;47.418;18.882;2024-01-30T09:41:28;22.73;;;13.47;;
38379;SDS011;38377;47.418;18.882;2024-01-30T09:43:57;25.77;;;14.07;;
38379;SDS011;38377;47.418;18.882;2024-01-30T09:46:22;30.27;;;14.37;;
38379;SDS011;38377;47.418;18.882;2024-01-30T09:48:55;23.17;;;13.63;;
38379;SDS011;38377;47.418;18.882;2024-01-30T09:51:22;22.00;;;13.07;;
38379;SDS011;38377;47.418;18.882;2024-01-30T09:53:49;25.93;;;14.23;;
38379;SDS011;38377;47.418;18.882;2024-01-30T09:56:14;20.67;;;12.67;;
38379;SDS011;38377;47.418;18.882;2024-01-30T09:58:41;27.57;;;13.90;;
38379;SDS011;38377;47.418;18.882;2024-01-30T10:01:07;24.27;;;14.13;;
38379;SDS011;38377;47.418;18.882;2024-01-30T10:03:32;27.73;;;15.90;;
38379;SDS011;38377;47.418;18.882;2024-01-30T10:05:59;24.03;;;14.03;;
38379;SDS011;38377;47.418;18.882;2024-01-30T10:08:26;26.47;;;14.50;;
38379;SDS011;38377;47.418;18.882;2024-01-30T10:10:52;26.30;;;15.73;;
38379;SDS011;38377;47.418;18.882;2024-01-30T10:13:17;25.83;;;14.37;;
38379;SDS011;38377;47.418;18.882;2024-01-30T10:15:43;22.43;;;12.97;;
38379;SDS011;38377;47.418;18.882;2024-01-30T10:18:10;25.43;;;12.87;;
38379;SDS011;38377;47.418;18.882;2024-01-30T10:20:36;22.97;;;13.30;;
38379;SDS011;38377;47.418;18.882;2024-01-30T10:23:02;25.23;;;13.70;;
38379;SDS011;38377;47.418;18.882;2024-01-30T10:25:28;26.43;;;14.40;;
38379;SDS011;38377;47.418;18.882;2024-01-30T10:27:55;24.73;;;14.57;;
38379;SDS011;38377;47.418;18.882;2024-01-30T10:30:21;25.10;;;15.30;;
38379;SDS011;38377;47.418;18.882;2024-01-30T10:32:48;30.30;;;18.20;;
38379;SDS011;38377;47.418;18.882;2024-01-30T10:35:13;30.27;;;16.97;;
38379;SDS011;38377;47.418;18.882;2024-01-30T10:37:40;29.73;;;17.17;;
38379;SDS011;38377;47.418;18.882;2024-01-30T10:40:08;30.83;;;16.40;;
38379;SDS011;38377;47.418;18.882;2024-01-30T10:42:37;31.57;;;16.77;;
38379;SDS011;38377;47.418;18.882;2024-01-30T10:45:13;32.33;;;17.43;;
38379;SDS011;38377;47.418;18.882;2024-01-30T10:47:49;35.53;;;17.77;;
38379;SDS011;38377;47.418;18.882;2024-01-30T10:50:15;30.73;;;17.40;;
38379;SDS011;38377;47.418;18.882;2024-01-30T10:52:41;27.60;;;15.33;;
38379;SDS011;38377;47.418;18.882;2024-01-30T10:55:07;29.87;;;15.00;;
38379;SDS011;38377;47.418;18.882;2024-01-30T10:57:36;31.37;;;18.63;;
38379;SDS011;38377;47.418;18.882;2024-01-30T11:00:09;66.97;;;28.10;;
38379;SDS011;38377;47.418;18.882;2024-01-30T11:02:41;36.07;;;19.97;;
38379;SDS011;38377;47.418;18.882;2024-01-30T11:05:09;31.10;;;17.87;;
38379;SDS011;38377;47.418;18.882;2024-01-30T11:07:35;29.40;;;16.67;;
38379;SDS011;38377;47.418;18.882;2024-01-30T11:10:03;31.00;;;16.43;;
38379;SDS011;38377;47.418;18.882;2024-01-30T11:12:31;27.17;;;16.27;;
38379;SDS011;38377;47.418;18.882;2024-01-30T11:15:05;31.23;;;17.17;;
38379;SDS011;38377;47.418;18.882;2024-01-30T11:20:16;32.88;;;17.52;;
38379;SDS011;38377;47.418;18.882;2024-01-30T11:22:45;24.90;;;14.57;;
38379;SDS011;38377;47.418;18.882;2024-01-30T11:25:15;21.60;;;13.30;;
38379;SDS011;38377;47.418;18.882;2024-01-30T11:27:42;22.80;;;13.90;;
38379;SDS011;38377;47.418;18.882;2024-01-30T11:30:08;23.13;;;13.70;;
38379;SDS011;38377;47.418;18.882;2024-01-30T11:32:34;21.73;;;12.00;;
38379;SDS011;38377;47.418;18.882;2024-01-30T11:35:00;23.48;;;10.00;;
38379;SDS011;38377;47.418;18.882;2024-01-30T11:37:28;19.03;;;10.63;;
38379;SDS011;38377;47.418;18.882;2024-01-30T11:39:55;22.57;;;11.27;;
38379;SDS011;38377;47.418;18.882;2024-01-30T11:42:23;18.70;;;10.97;;
38379;SDS011;38377;47.418;18.882;2024-01-30T11:44:50;18.95;;;11.02;;
38379;SDS011;38377;47.418;18.882;2024-01-30T11:47:16;16.58;;;9.95;;
38379;SDS011;38377;47.418;18.882;2024-01-30T11:49:42;18.10;;;10.97;;
38379;SDS011;38377;47.418;18.882;2024-01-30T11:52:08;21.98;;;12.80;;
38379;SDS011;38377;47.418;18.882;2024-01-30T11:54:34;23.98;;;13.60;;
38379;SDS011;38377;47.418;18.882;2024-01-30T11:57:00;23.58;;;12.75;;
38379;SDS011;38377;47.418;18.882;2024-01-30T11:59:26;21.83;;;12.13;;
38379;SDS011;38377;47.418;18.882;2024-01-30T12:01:51;19.92;;;12.07;;
38379;SDS011;38377;47.418;18.882;2024-01-30T12:04:17;23.88;;;12.57;;
38379;SDS011;38377;47.418;18.882;2024-01-30T12:06:43;22.83;;;12.67;;
38379;SDS011;38377;47.418;18.882;2024-01-30T12:09:09;24.83;;;13.05;;
38379;SDS011;38377;47.418;18.882;2024-01-30T12:11:46;26.77;;;13.63;;
38379;SDS011;38377;47.418;18.882;2024-01-30T12:14:13;25.63;;;14.27;;
38379;SDS011;38377;47.418;18.882;2024-01-30T12:16:40;25.97;;;12.77;;
38379;SDS011;38377;47.418;18.882;2024-01-30T12:19:06;22.70;;;12.40;;
38379;SDS011;38377;47.418;18.882;2024-01-30T12:21:33;22.17;;;12.75;;
38379;SDS011;38377;47.418;18.882;2024-01-30T12:23:59;25.20;;;14.43;;
38379;SDS011;38377;47.418;18.882;2024-01-30T12:26:25;22.57;;;11.53;;
38379;SDS011;38377;47.418;18.882;2024-01-30T12:28:54;22.92;;;13.15;;
38379;SDS011;38377;47.418;18.882;2024-01-30T12:31:26;21.73;;;10.70;;
38379;SDS011;38377;47.418;18.882;2024-01-30T12:33:52;22.23;;;11.23;;
38379;SDS011;38377;47.418;18.882;2024-01-30T12:36:18;19.83;;;11.35;;
38379;SDS011;38377;47.418;18.882;2024-01-30T12:38:44;19.02;;;11.75;;
38379;SDS011;38377;47.418;18.882;2024-01-30T12:41:10;19.53;;;11.70;;
38379;SDS011;38377;47.418;18.882;2024-01-30T12:43:36;22.17;;;10.45;;
38379;SDS011;38377;47.418;18.882;2024-01-30T12:46:02;18.95;;;9.65;;
38379;SDS011;38377;47.418;18.882;2024-01-30T12:48:28;19.02;;;10.48;;
38379;SDS011;38377;47.418;18.882;2024-01-30T12:50:55;19.27;;;11.20;;
38379;SDS011;38377;47.418;18.882;2024-01-30T12:53:21;15.52;;;9.57;;
38379;SDS011;38377;47.418;18.882;2024-01-30T12:55:47;18.27;;;9.05;;
38379;SDS011;38377;47.418;18.882;2024-01-30T12:58:12;15.32;;;9.30;;
38379;SDS011;38377;47.418;18.882;2024-01-30T13:00:38;16.15;;;9.18;;
38379;SDS011;38377;47.418;18.882;2024-01-30T13:03:03;17.17;;;9.40;;
38379;SDS011;38377;47.418;18.882;2024-01-30T13:05:29;15.80;;;8.63;;
38379;SDS011;38377;47.418;18.882;2024-01-30T13:07:55;18.92;;;9.00;;
38379;SDS011;38377;47.418;18.882;2024-01-30T13:10:22;18.40;;;9.60;;
38379;SDS011;38377;47.418;18.882;2024-01-30T13:12:48;16.27;;;8.27;;
38379;SDS011;38377;47.418;18.882;2024-01-30T13:15:13;15.90;;;8.90;;
38379;SDS011;38377;47.418;18.882;2024-01-30T13:17:39;13.30;;;8.05;;
38379;SDS011;38377;47.418;18.882;2024-01-30T13:20:05;16.45;;;8.45;;
38379;SDS011;38377;47.418;18.882;2024-01-30T13:22:33;14.65;;;8.15;;
38379;SDS011;38377;47.418;18.882;2024-01-30T13:24:59;14.25;;;7.53;;
38379;SDS011;38377;47.418;18.882;2024-01-30T13:27:24;11.50;;;7.00;;
38379;SDS011;38377;47.418;18.882;2024-01-30T13:29:50;11.13;;;7.65;;
38379;SDS011;38377;47.418;18.882;2024-01-30T13:32:15;11.93;;;7.43;;
38379;SDS011;38377;47.418;18.882;2024-01-30T13:34:41;11.90;;;7.60;;
38379;SDS011;38377;47.418;18.882;2024-01-30T13:37:08;13.00;;;8.00;;
38379;SDS011;38377;47.418;18.882;2024-01-30T13:39:33;13.68;;;8.45;;
38379;SDS011;38377;47.418;18.882;2024-01-30T13:41:59;15.45;;;8.38;;
38379;SDS011;38377;47.418;18.882;2024-01-30T13:44:24;14.93;;;8.88;;
38379;SDS011;38377;47.418;18.882;2024-01-30T13:46:50;19.42;;;8.90;;
38379;SDS011;38377;47.418;18.882;2024-01-30T13:49:15;15.95;;;8.10;;
38379;SDS011;38377;47.418;18.882;2024-01-30T13:51:41;16.27;;;8.18;;
38379;SDS011;38377;47.418;18.882;2024-01-30T13:54:07;13.23;;;8.73;;
38379;SDS011;38377;47.418;18.882;2024-01-30T13:56:33;14.60;;;8.18;;
38379;SDS011;38377;47.418;18.882;2024-01-30T13:58:59;14.52;;;8.88;;
38379;SDS011;38377;47.418;18.882;2024-01-30T14:01:26;14.50;;;8.13;;
38379;SDS011;38377;47.418;18.882;2024-01-30T14:03:52;14.15;;;8.25;;
38379;SDS011;38377;47.418;18.882;2024-01-30T14:06:17;14.33;;;7.83;;